Time;durP1;ratioP1;P1;durP2;ratioP2;P2;SDS_P1;SDS_P2;PMS_P1;PMS_P2;Temp;Humidity;BMP_temperature;BMP_pressure;BME280_temperature;BME280_humidity;BME280_pressure;Samples;Min_cycle;Max_cycle;Signal;HPM_P1;HPM_P2
2023/08/21 02:13:32;;;;;;;8.50;7.50;;;;;;;23.31;100.00;99729.42;104917;1292;601726;-63
2023/08/21 02:16:01;;;;;;;8.90;7.70;;;;;;;23.60;100.00;99724.23;105196;1267;61354;-63
2023/08/21 02:18:29;;;;;;;;;;;;;;;23.59;100.00;99720.13;103976;1267;59839;-62
2023/08/21 02:20:57;;;;;;;8.90;7.90;;;;;;;23.62;100.00;99719.84;103539;1267;71350;-62
2023/08/21 02:23:25;;;;;;;8.20;7.60;;;;;;;23.61;100.00;99718.55;104254;1266;69213;-62
2023/08/21 02:25:53;;;;;;;8.50;7.10;;;;;;;23.60;100.00;99723.45;103450;1272;72947;-61
2023/08/21 02:28:21;;;;;;;;;;;;;;;23.60;100.00;99725.27;103748;1270;262721;-61
2023/08/21 02:30:48;;;;;;;12.50;8.10;;;;;;;23.57;100.00;99724.62;103918;1283;59682;-62
2023/08/21 02:33:16;;;;;;;8.00;7.40;;;;;;;23.55;100.00;99725.91;103929;1267;72440;-62
2023/08/21 02:35:44;;;;;;;8.90;8.10;;;;;;;23.53;100.00;99725.23;103928;1285;69552;-64
2023/08/21 02:38:11;;;;;;;8.60;7.50;;;;;;;23.49;100.00;99725.05;103897;1286;73418;-63
2023/08/21 02:40:39;;;;;;;8.00;7.30;;;;;;;23.47;100.00;99724.13;103882;1266;61409;-63
2023/08/21 02:43:07;;;;;;;9.30;7.60;;;;;;;23.45;100.00;99722.27;103845;1282;60084;-63
2023/08/21 02:45:34;;;;;;;8.70;8.00;;;;;;;23.41;100.00;99721.39;103996;1282;72176;-63
2023/08/21 02:48:02;;;;;;;8.40;7.80;;;;;;;23.36;100.00;99717.75;103988;1273;70114;-62
2023/08/21 02:50:30;;;;;;;10.70;8.00;;;;;;;23.33;100.00;99718.19;103951;1286;72431;-62
2023/08/21 02:53:01;;;;;;;8.50;7.90;;;;;;;23.23;100.00;99716.23;103889;1269;61797;-62
2023/08/21 02:55:28;;;;;;;8.20;7.40;;;;;;;23.21;100.00;99721.66;103978;1262;59713;-62
2023/08/21 02:57:56;;;;;;;8.00;7.30;;;;;;;23.16;100.00;99717.27;103913;1285;72910;-61
2023/08/21 03:00:25;;;;;;;10.80;8.00;;;;;;;23.12;100.00;99718.68;103863;1264;69015;-61
2023/08/21 03:02:53;;;;;;;7.80;7.20;;;;;;;23.09;100.00;99716.47;104042;1266;72366;-61
2023/08/21 03:05:21;;;;;;;8.70;8.00;;;;;;;23.06;100.00;99717.33;103613;1266;61639;-63
2023/08/21 03:07:48;;;;;;;;;;;;;;;23.04;100.00;99717.70;103913;1269;60087;-63
2023/08/21 03:10:16;;;;;;;;;;;;;;;23.03;100.00;99718.13;103950;1267;72911;-64
2023/08/21 03:12:43;;;;;;;9.10;8.20;;;;;;;23.03;100.00;99717.79;103892;1286;69083;-63
2023/08/21 03:15:11;;;;;;;8.00;7.50;;;;;;;23.02;100.00;99721.81;103817;1280;72605;-64
2023/08/21 03:17:39;;;;;;;8.80;8.00;;;;;;;23.04;100.00;99719.11;105173;1264;61400;-65
2023/08/21 03:20:07;;;;;;;;;;;;;;;23.04;100.00;99718.63;104022;1270;59705;-60
2023/08/21 03:22:35;;;;;;;8.90;8.00;;;;;;;23.01;100.00;99718.34;104104;1266;72802;-58
2023/08/21 03:25:04;;;;;;;11.50;8.90;;;;;;;23.02;100.00;99716.60;103761;1266;69152;-58
2023/08/21 03:27:31;;;;;;;8.80;7.90;;;;;;;23.04;100.00;99722.52;103957;1261;72399;-57
2023/08/21 03:30:00;;;;;;;9.30;8.40;;;;;;;23.07;100.00;99723.70;104000;1266;61799;-57
2023/08/21 03:32:28;;;;;;;9.00;8.10;;;;;;;23.09;100.00;99725.41;103772;1276;59815;-57
2023/08/21 03:34:57;;;;;;;9.10;8.10;;;;;;;23.11;100.00;99723.13;103937;1264;73660;-57
2023/08/21 03:37:24;;;;;;;11.60;8.80;;;;;;;23.16;100.00;99720.71;103738;1276;69079;-58
2023/08/21 03:39:52;;;;;;;9.30;8.50;;;;;;;23.22;100.00;99726.58;103877;1273;73341;-58
2023/08/21 03:42:19;;;;;;;8.80;7.50;;;;;;;23.23;100.00;99727.30;103740;1265;61687;-58
2023/08/21 03:44:49;;;;;;;9.30;8.50;;;;;;;23.25;100.00;99723.43;103758;1263;59847;-58
2023/08/21 03:47:17;;;;;;;13.80;8.50;;;;;;;23.28;100.00;99722.38;103856;1279;72776;-58
2023/08/21 03:49:58;;;;;;;17.80;9.00;;;;;;;23.29;100.00;99721.39;103721;1265;69625;-57
2023/08/21 03:52:29;;;;;;;11.90;8.10;;;;;;;23.30;100.00;99720.46;103859;1265;72365;-57
2023/08/21 03:54:56;;;;;;;11.80;8.50;;;;;;;23.30;100.00;99718.79;103702;1266;61492;-58
2023/08/21 03:57:24;;;;;;;9.80;8.70;;;;;;;23.36;100.00;99715.55;103912;1264;59722;-56
2023/08/21 03:59:52;;;;;;;;;;;;;;;23.39;100.00;99716.20;103831;1269;72580;-56
2023/08/21 04:02:19;;;;;;;;;;;;;;;23.41;100.00;99721.13;103927;1266;69773;-56
2023/08/21 04:04:47;;;;;;;;;;;;;;;23.43;100.00;99723.14;103700;1282;72336;-58
2023/08/21 04:07:14;;;;;;;9.00;8.20;;;;;;;23.44;100.00;99725.38;103678;1266;60563;-57
2023/08/21 04:09:42;;;;;;;9.10;8.20;;;;;;;23.45;100.00;99723.06;103912;1266;60717;-59
2023/08/21 04:12:10;;;;;;;9.30;8.50;;;;;;;23.50;100.00;99720.98;103875;1263;73366;-59
2023/08/21 04:14:37;;;;;;;9.70;8.80;;;;;;;23.60;100.00;99724.19;103952;1260;69106;-58
2023/08/21 04:17:05;;;;;;;9.00;8.40;;;;;;;23.67;100.00;99721.88;103767;1264;72977;-59
2023/08/21 04:19:34;;;;;;;;;;;;;;;23.73;100.00;99723.18;103881;1261;61396;-59
2023/08/21 04:22:02;;;;;;;10.20;8.30;;;;;;;23.76;100.00;99722.84;104140;1279;59734;-59
2023/08/21 04:24:30;;;;;;;9.00;8.20;;;;;;;23.80;100.00;99721.40;104083;1263;73316;-59
2023/08/21 04:26:58;;;;;;;9.00;8.30;;;;;;;23.86;100.00;99723.09;104247;1279;69101;-59
2023/08/21 04:29:26;;;;;;;9.30;8.50;;;;;;;23.90;100.00;99723.16;104373;1257;72394;-58
2023/08/21 04:31:54;;;;;;;9.10;8.10;;;;;;;23.97;100.00;99724.98;104063;1263;62394;-59
2023/08/21 04:34:21;;;;;;;8.50;7.80;;;;;;;24.04;100.00;99721.75;104397;1256;59680;-61
2023/08/21 04:36:50;;;;;;;8.80;7.60;;;;;;;24.12;100.00;99725.96;104203;1271;73210;-58
2023/08/21 04:39:18;;;;;;;9.70;7.60;;;;;;;24.21;100.00;99722.40;104179;1257;69647;-60
2023/08/21 04:41:46;;;;;;;8.30;7.40;;;;;;;24.29;100.00;99722.58;104023;1263;72943;-60
2023/08/21 04:44:14;;;;;;;8.70;7.70;;;;;;;24.36;100.00;99722.03;103945;1276;61448;-59
2023/08/21 04:46:43;;;;;;;8.80;7.70;;;;;;;24.43;100.00;99722.95;104062;1261;60071;-58
2023/08/21 04:49:12;;;;;;;8.10;7.50;;;;;;;24.48;100.00;99718.65;103982;1263;72906;-58
2023/08/21 04:51:40;;;;;;;8.40;7.20;;;;;;;24.56;100.00;99722.77;104049;1257;69096;-59
2023/08/21 04:54:08;;;;;;;;;;;;;;;24.64;100.00;99722.23;104000;1265;72904;-59
2023/08/21 04:56:36;;;;;;;8.60;7.40;;;;;;;24.72;100.00;99725.13;103947;1257;62354;-59
2023/08/21 04:59:04;;;;;;;8.00;7.20;;;;;;;24.75;100.00;99728.86;104043;1258;59720;-59
2023/08/21 05:01:31;;;;;;;8.30;7.40;;;;;;;24.81;100.00;99723.93;104358;1263;72906;-60
2023/08/21 05:04:00;;;;;;;8.10;7.50;;;;;;;24.85;100.00;99719.96;104048;1263;69022;-61
2023/08/21 05:06:27;;;;;;;7.60;7.00;;;;;;;24.91;100.00;99718.50;104053;1279;72378;-58
2023/08/21 05:08:55;;;;;;;10.20;7.70;;;;;;;25.00;100.00;99719.95;104134;1263;61792;-58
2023/08/21 05:11:25;;;;;;;7.70;7.10;;;;;;;25.08;100.00;99719.97;104142;1260;59791;-57
2023/08/21 05:13:52;;;;;;;8.00;7.30;;;;;;;25.17;100.00;99721.92;104124;1258;71916;-59
2023/08/21 05:16:21;;;;;;;8.30;7.50;;;;;;;25.23;100.00;99720.95;106754;1257;69676;-59
2023/08/21 05:18:49;;;;;;;7.40;6.80;;;;;;;25.29;100.00;99724.73;104116;1279;72895;-58
2023/08/21 05:21:19;;;;;;;8.40;7.70;;;;;;;25.35;100.00;99721.95;104023;1258;61622;-58
2023/08/21 05:23:47;;;;;;;8.00;7.30;;;;;;;25.41;100.00;99724.52;104130;1257;60235;-59
2023/08/21 05:26:15;;;;;;;7.90;7.20;;;;;;;25.51;100.00;99725.41;104159;1261;71893;-58
2023/08/21 05:28:42;;;;;;;;;;;;;;;25.58;100.00;99722.63;104260;1262;69755;-58
2023/08/21 05:31:10;;;;;;;;;;;;;;;25.65;100.00;99726.89;104080;1279;72444;-58
2023/08/21 05:33:46;;;;;;;8.60;7.80;;;;;;;25.72;100.00;99727.05;104235;1258;61461;-57
2023/08/21 05:36:14;;;;;;;8.00;7.20;;;;;;;25.79;100.00;99724.13;104147;1263;59973;-58
2023/08/21 05:38:41;;;;;;;8.30;7.50;;;;;;;25.88;100.00;99726.96;103973;1281;73027;-58
2023/08/21 05:41:09;;;;;;;14.60;7.70;;;;;;;25.95;100.00;99728.15;104023;1260;69152;-57
2023/08/21 05:43:39;;;;;;;12.30;8.00;;;;;;;26.04;100.00;99729.30;104000;1263;72478;-57
2023/08/21 05:46:07;;;;;;;12.70;7.70;;;;;;;26.11;100.00;99732.66;104129;1263;60782;-59
2023/08/21 05:48:35;;;;;;;8.60;7.90;;;;;;;26.15;100.00;99729.64;104120;1263;59662;-57
2023/08/21 05:51:03;;;;;;;8.50;7.70;;;;;;;26.22;100.00;99735.41;104016;1265;72899;-60
2023/08/21 05:53:31;;;;;;;9.00;7.80;;;;;;;26.29;100.00;99733.04;104118;1261;69273;-60
2023/08/21 05:55:59;;;;;;;9.10;7.40;;;;;;;26.39;100.00;99732.45;104165;1260;72509;-59
2023/08/21 05:58:31;;;;;;;8.70;7.80;;;;;;;26.51;100.00;99731.60;103997;1258;61759;-59
2023/08/21 06:00:59;;;;;;;11.20;7.80;;;;;;;26.57;100.00;99732.20;104248;1263;59726;-59
2023/08/21 06:03:26;;;;;;;9.60;8.20;;;;;;;26.65;100.00;99731.95;103969;1265;73277;-59
2023/08/21 06:06:21;;;;;;;8.10;7.40;;;;;;;26.77;100.00;99730.44;104158;1263;69247;-59
2023/08/21 06:08:49;;;;;;;9.90;7.60;;;;;;;26.85;100.00;99726.36;104078;1263;72927;-59
2023/08/21 06:11:16;;;;;;;8.00;7.30;;;;;;;26.93;100.00;99728.33;103913;1257;61371;-58
2023/08/21 06:13:44;;;;;;;9.30;8.30;;;;;;;26.99;100.00;99729.92;104367;1261;59684;-59
2023/08/21 06:16:12;;;;;;;9.50;7.50;;;;;;;27.02;100.00;99722.86;104184;1257;71587;-59
2023/08/21 06:18:40;;;;;;;8.70;7.40;;;;;;;27.06;100.00;99726.16;104070;1260;68146;-59
2023/08/21 06:21:09;;;;;;;7.70;6.80;;;;;;;27.13;100.00;99726.94;103924;1263;72477;-59
2023/08/21 06:23:37;;;;;;;7.80;7.00;;;;;;;27.22;100.00;99730.86;104006;1260;61891;-57
2023/08/21 06:26:04;;;;;;;;;;;;;;;27.32;100.00;99729.02;104078;1266;60530;-58
2023/08/21 06:28:32;;;;;;;;;;;;;;;27.40;100.00;99729.83;103778;1281;73653;-58
2023/08/21 06:31:03;;;;;;;8.40;7.50;;;;;;;27.43;100.00;99730.19;103735;1281;69502;-58
2023/08/21 06:33:33;;;;;;;7.70;7.00;;;;;;;27.47;100.00;99729.67;104042;1280;72651;-59
2023/08/21 06:36:01;;;;;;;7.90;7.00;;;;;;;27.59;100.00;99732.20;104004;1266;61446;-59
2023/08/21 06:38:28;;;;;;;7.60;6.80;;;;;;;27.67;100.00;99734.29;104015;1258;60571;-59
2023/08/21 06:40:56;;;;;;;;;;;;;;;27.74;100.00;99728.23;104309;1257;73611;-59
2023/08/21 06:43:25;;;;;;;8.00;7.30;;;;;;;27.80;100.00;99730.26;104337;1260;68449;-59
2023/08/21 06:45:54;;;;;;;8.60;6.90;;;;;;;27.85;100.00;99727.59;104400;1275;73698;-58
2023/08/21 06:48:22;;;;;;;8.10;6.90;;;;;;;27.90;100.00;99731.98;104302;1257;61667;-58
2023/08/21 06:50:50;;;;;;;7.80;7.00;;;;;;;27.98;100.00;99731.52;104799;1256;60512;-60
2023/08/21 06:53:18;;;;;;;;;;;;;;;28.08;100.00;99728.16;104677;1259;72828;-60
2023/08/21 06:55:46;;;;;;;11.40;6.70;;;;;;;28.17;100.00;99727.75;104579;1257;69042;-59
2023/08/21 06:58:13;;;;;;;7.30;6.60;;;;;;;28.23;100.00;99726.70;104477;1258;72614;-60
2023/08/21 07:00:41;;;;;;;7.40;6.70;;;;;;;28.27;100.00;99722.17;104654;1259;61372;-59
2023/08/21 07:03:09;;;;;;;8.60;6.60;;;;;;;28.35;100.00;99724.23;104902;1258;59870;-59
2023/08/21 07:05:37;;;;;;;;;;;;;;;28.41;100.00;99721.91;104542;1269;73586;-59
2023/08/21 07:08:05;;;;;;;7.80;7.00;;;;;;;28.48;100.00;99715.61;104482;1273;69110;-59
2023/08/21 07:10:37;;;;;;;11.30;7.40;;;;;;;28.58;100.00;99719.15;104529;1254;72582;-59
2023/08/21 07:13:05;;;;;;;9.00;6.90;;;;;;;28.67;100.00;99718.12;104657;1259;61716;-60
2023/08/21 07:15:32;;;;;;;7.60;6.60;;;;;;;28.72;100.00;99720.48;105770;1254;60636;-60
2023/08/21 07:18:00;;;;;;;;;;;;;;;28.71;100.00;99719.93;108278;1253;73584;-60
2023/08/21 07:20:28;;;;;;;8.40;6.50;;;;;;;28.79;100.00;99718.52;105196;1257;69176;-59
2023/08/21 07:22:56;;;;;;;8.10;6.70;;;;;;;28.89;100.00;99722.14;104632;1260;74008;-61
2023/08/21 07:25:25;;;;;;;;;;;;;;;29.00;100.00;99715.70;106793;1254;61501;-60
2023/08/21 07:27:57;;;;;;;7.70;6.60;;;;;;;29.13;100.00;99717.41;108234;1254;59947;-60
2023/08/21 07:30:24;;;;;;;9.30;7.40;;;;;;;29.22;100.00;99713.21;105620;1259;73629;-59
2023/08/21 07:32:52;;;;;;;8.00;7.30;;;;;;;29.30;100.00;99710.63;104631;1260;69093;-59
2023/08/21 07:35:20;;;;;;;8.70;7.90;;;;;;;29.37;100.00;99707.65;104522;1267;72443;-60
2023/08/21 07:37:48;;;;;;;;;;;;;;;29.46;100.00;99708.35;104687;1255;61453;-60
2023/08/21 07:40:15;;;;;;;9.40;6.50;;;;;;;29.53;100.00;99708.41;104525;1259;60586;-59
2023/08/21 07:42:43;;;;;;;;;;;;;;;29.58;100.00;99709.60;104829;1257;73680;-59
2023/08/21 07:45:11;;;;;;;8.50;6.40;;;;;;;29.62;100.00;99708.56;104878;1254;70146;-59
2023/08/21 07:47:39;;;;;;;10.30;6.60;;;;;;;29.67;100.00;99708.19;104539;1263;73782;-59
2023/08/21 07:50:07;;;;;;;;;;;;;;;29.71;100.00;99702.23;104409;1259;60730;-59
2023/08/21 07:52:35;;;;;;;6.40;5.80;;;;;;;29.78;100.00;99700.67;104768;1258;59977;-60
2023/08/21 07:55:04;;;;;;;6.70;5.70;;;;;;;29.82;100.00;99703.27;104518;1258;74771;-59
2023/08/21 07:57:31;;;;;;;7.50;5.60;;;;;;;29.86;100.00;99699.85;104317;1276;69166;-59
2023/08/21 08:00:00;;;;;;;12.80;5.70;;;;;;;29.88;100.00;99695.89;104338;1258;72321;-59
2023/08/21 08:02:40;;;;;;;7.40;6.20;;;;;;;29.99;100.00;99695.22;104203;1259;61452;-60
2023/08/21 08:05:10;;;;;;;6.40;5.80;;;;;;;30.06;100.00;99693.21;104480;1265;60444;-60
2023/08/21 08:07:38;;;;;;;6.10;5.70;;;;;;;30.15;100.00;99697.75;104679;1254;73772;-61
2023/08/21 08:10:06;;;;;;;7.30;5.20;;;;;;;30.24;100.00;99699.13;104386;1254;69950;-61
2023/08/21 08:12:34;;;;;;;7.20;6.50;;;;;;;30.30;100.00;99697.67;104692;1260;75041;-60
2023/08/21 08:15:05;;;;;;;8.40;5.50;;;;;;;30.36;100.00;99692.31;104277;1264;61791;-60
2023/08/21 08:17:32;;;;;;;8.20;5.60;;;;;;;30.41;100.00;99692.91;104851;1257;60447;-60
2023/08/21 08:20:00;;;;;;;6.10;5.60;;;;;;;30.49;100.00;99690.23;104559;1259;74699;-60
2023/08/21 08:22:28;;;;;;;;;;;;;;;30.57;100.00;99689.23;104311;1276;70549;-60
2023/08/21 08:24:56;;;;;;;5.80;5.30;;;;;;;30.67;100.00;99686.68;104507;1260;73442;-60
2023/08/21 08:27:24;;;;;;;8.60;5.60;;;;;;;30.76;100.00;99686.33;104640;1258;61360;-61
2023/08/21 08:29:52;;;;;;;7.60;5.70;;;;;;;30.83;100.00;99687.86;104798;1254;60686;-61
2023/08/21 08:32:19;;;;;;;;;;;;;;;30.90;100.00;99683.97;104316;1255;74831;-61
2023/08/21 08:34:47;;;;;;;5.70;5.30;;;;;;;30.99;100.00;99685.01;104623;1259;69112;-60
2023/08/21 08:37:15;;;;;;;;;;;;;;;31.02;100.00;99680.98;104957;1258;72451;-60
2023/08/21 08:39:43;;;;;;;8.40;5.30;;;;;;;31.01;100.00;99681.48;104476;1254;60558;-60
2023/08/21 08:42:11;;;;;;;6.60;5.00;;;;;;;31.06;100.00;99677.29;104988;1260;60885;-60
2023/08/21 08:44:39;;;;;;;;;;;;;;;31.14;99.18;99678.34;104993;1254;72994;-61
2023/08/21 08:47:10;;;;;;;6.40;5.10;;;;;;;31.30;99.75;99674.68;104299;1269;69214;-60
2023/08/21 08:49:40;;;;;;;5.90;5.10;;;;;;;31.34;99.20;99671.79;104701;1254;72872;-61
2023/08/21 08:52:08;;;;;;;6.30;4.70;;;;;;;31.43;98.83;99670.33;104548;1260;60537;-60
2023/08/21 08:54:38;;;;;;;9.60;4.70;;;;;;;31.53;97.78;99669.77;104634;1258;60529;-60
2023/08/21 08:57:06;;;;;;;6.10;5.10;;;;;;;31.62;94.68;99670.66;104214;1261;74054;-60
2023/08/21 08:59:33;;;;;;;;;;;;;;;31.69;93.17;99667.34;104349;1276;69497;-60
2023/08/21 09:02:01;;;;;;;5.90;4.20;;;;;;;31.68;93.32;99664.13;104663;1254;72502;-61
2023/08/21 09:04:31;;;;;;;4.50;4.10;;;;;;;31.75;91.57;99656.67;104299;1258;61279;-61
2023/08/21 09:07:11;;;;;;;5.00;4.60;;;;;;;31.86;91.59;99652.40;104731;1266;60540;-62
2023/08/21 09:09:45;;;;;;;5.10;4.60;;;;;;;31.91;88.83;99655.17;104344;1276;73649;-61
2023/08/21 09:12:16;;;;;;;4.70;4.30;;;;;;;31.89;88.65;99654.15;104552;1266;69367;-61
2023/08/21 09:14:44;;;;;;;5.30;4.90;;;;;;;31.82;86.58;99657.73;104888;1254;72470;-62
2023/08/21 09:17:12;;;;;;;8.20;5.10;;;;;;;31.79;84.44;99656.55;104827;1260;60641;-62
2023/08/21 09:19:40;;;;;;;6.10;5.00;;;;;;;31.75;83.80;99653.95;108227;1254;60092;-62
2023/08/21 09:22:12;;;;;;;6.30;5.60;;;;;;;31.86;84.87;99650.55;106195;1256;73630;-61
2023/08/21 09:24:40;;;;;;;5.30;4.90;;;;;;;32.00;84.77;99649.94;104352;1260;70113;-60
2023/08/21 09:27:15;;;;;;;7.20;5.20;;;;;;;32.07;81.59;99649.39;104443;1254;72940;-60
2023/08/21 09:29:42;;;;;;;7.90;5.20;;;;;;;32.11;80.24;99647.05;104361;1261;60871;-60
2023/08/21 09:32:10;;;;;;;9.40;5.70;;;;;;;32.15;81.12;99649.73;104437;1258;60521;-60
2023/08/21 09:34:39;;;;;;;5.70;4.70;;;;;;;32.17;79.69;99643.71;104256;1275;74466;-60
2023/08/21 09:37:07;;;;;;;5.30;4.90;;;;;;;32.12;79.62;99645.50;104282;1276;68701;-60
2023/08/21 09:39:36;;;;;;;4.70;4.40;;;;;;;32.04;80.70;99641.96;104264;1259;72419;-59
2023/08/21 09:42:07;;;;;;;6.10;5.00;;;;;;;31.96;81.55;99640.88;104367;1254;60508;-60
2023/08/21 09:44:38;;;;;;;8.50;4.50;;;;;;;31.90;83.85;99636.06;104302;1257;60648;-59
2023/08/21 09:47:12;;;;;;;5.40;4.90;;;;;;;31.87;83.46;99639.30;104280;1276;73711;-60
2023/08/21 09:49:39;;;;;;;14.50;13.20;;;;;;;31.92;83.77;99638.11;104273;1276;69317;-59
2023/08/21 09:52:10;;;;;;;10.90;8.30;;;;;;;32.05;81.24;99634.20;104300;1259;72582;-59
2023/08/21 09:54:38;;;;;;;6.70;6.00;;;;;;;32.17;80.55;99625.36;104329;1258;60554;-59
2023/08/21 09:57:06;;;;;;;6.40;5.90;;;;;;;32.26;80.08;99623.42;104473;1257;60585;-61
2023/08/21 09:59:33;;;;;;;9.00;5.70;;;;;;;32.43;78.57;99627.30;104350;1259;73673;-62
2023/08/21 10:02:01;;;;;;;;;;;;;;;32.61;76.23;99624.77;104317;1260;70284;-65
2023/08/21 10:04:31;;;;;;;28.30;20.10;;;;;;;32.70;75.21;99612.84;104358;1258;72441;-68
2023/08/21 10:06:59;;;;;;;12.00;7.20;;;;;;;32.75;74.90;99611.41;104319;1269;60562;-65
2023/08/21 10:09:27;;;;;;;19.50;15.80;;;;;;;32.81;72.93;99611.54;104745;1255;60587;-64
2023/08/21 10:11:54;;;;;;;;;;;;;;;32.86;70.04;99609.55;104487;1273;73621;-63
2023/08/21 10:14:23;;;;;;;6.30;5.70;;;;;;;32.94;67.77;99611.67;104582;1264;69310;-63
2023/08/21 10:16:52;;;;;;;7.40;4.30;;;;;;;32.91;67.17;99606.23;104393;1258;72366;-64
2023/08/21 10:19:20;;;;;;;6.60;4.60;;;;;;;32.95;66.44;99606.98;106047;1254;60555;-66
2023/08/21 10:21:49;;;;;;;8.30;4.40;;;;;;;33.02;66.15;99602.39;104581;1255;60508;-62
2023/08/21 10:24:28;;;;;;;5.40;4.20;;;;;;;33.12;66.93;99591.29;105187;1257;73720;-62
2023/08/21 10:26:59;;;;;;;5.20;4.50;;;;;;;33.31;64.07;99593.71;104578;1267;70305;-61
2023/08/21 10:29:26;;;;;;;4.70;4.30;;;;;;;33.43;64.13;99593.83;104566;1255;73145;-62
2023/08/21 10:32:04;;;;;;;5.80;4.50;;;;;;;33.44;62.14;99588.25;104646;1254;59791;-62
2023/08/21 10:34:37;;;;;;;11.10;4.10;;;;;;;33.47;62.17;99587.81;104899;1254;60413;-62
2023/08/21 10:37:07;;;;;;;4.90;4.10;;;;;;;33.51;61.96;99583.89;104660;1264;74482;-63
2023/08/21 10:39:37;;;;;;;6.70;4.30;;;;;;;33.51;60.63;99586.28;104490;1264;70426;-66
2023/08/21 10:42:14;;;;;;;4.40;4.00;;;;;;;33.47;61.30;99593.05;104314;1273;72939;-62
2023/08/21 10:44:55;;;;;;;10.30;4.30;;;;;;;33.40;63.48;99594.09;104404;1257;60565;-65
2023/08/21 10:47:30;;;;;;;4.90;4.40;;;;;;;33.35;64.30;99593.44;104408;1258;60500;-66
2023/08/21 10:50:01;;;;;;;5.40;4.10;;;;;;;33.35;64.64;99600.73;104500;1255;73800;-66
2023/08/21 10:52:34;;;;;;;5.20;4.40;;;;;;;33.34;65.31;99600.10;104450;1259;70114;-67
2023/08/21 10:55:05;;;;;;;7.50;4.10;;;;;;;33.33;66.22;99604.38;104291;1259;72401;-69
2023/08/21 10:57:33;;;;;;;19.40;5.40;;;;;;;33.27;67.20;99611.23;104347;1260;59945;-67
2023/08/21 11:00:14;;;;;;;21.50;5.30;;;;;;;33.11;70.00;99610.04;104289;1254;60652;-66
2023/08/21 11:02:46;;;;;;;16.80;5.30;;;;;;;32.77;74.74;99616.42;104333;1259;73674;-68
2023/08/21 11:05:14;;;;;;;10.00;4.30;;;;;;;32.29;79.52;99626.32;104425;1260;70180;-61
2023/08/21 11:07:47;;;;;;;11.80;4.50;;;;;;;31.82;84.63;99625.20;104407;1258;72389;-63
2023/08/21 11:10:16;;;;;;;12.90;4.90;;;;;;;31.53;89.85;99621.75;104365;1254;60554;-62
2023/08/21 11:12:57;;;;;;;6.90;4.80;;;;;;;31.21;94.61;99620.45;104307;1257;60559;-65
2023/08/21 11:15:27;;;;;;;9.40;4.80;;;;;;;31.00;99.49;99627.17;104306;1260;73628;-62
2023/08/21 11:17:59;;;;;;;5.30;4.10;;;;;;;30.81;100.00;99625.77;105891;1254;69186;-67
2023/08/21 11:20:33;;;;;;;4.40;4.00;;;;;;;30.67;100.00;99627.99;108220;1254;72920;-63
2023/08/21 11:23:06;;;;;;;4.80;4.20;;;;;;;30.51;100.00;99625.40;105102;1259;60962;-62
2023/08/21 11:25:39;;;;;;;4.20;3.90;;;;;;;30.39;100.00;99628.09;104359;1257;60600;-64
2023/08/21 11:28:08;;;;;;;4.40;3.80;;;;;;;30.28;100.00;99632.13;104570;1254;73712;-64
2023/08/21 11:30:36;;;;;;;6.80;4.20;;;;;;;30.22;100.00;99639.16;104865;1257;69184;-66
2023/08/21 11:33:08;;;;;;;5.80;4.50;;;;;;;30.11;100.00;99636.96;104577;1263;71391;-64
2023/08/21 11:35:36;;;;;;;5.30;4.00;;;;;;;29.95;100.00;99635.55;104570;1254;60552;-65
2023/08/21 11:38:06;;;;;;;5.10;4.30;;;;;;;29.89;100.00;99631.39;104585;1255;60596;-64
2023/08/21 11:40:36;;;;;;;8.70;4.20;;;;;;;29.88;100.00;99631.09;104531;1261;74474;-63
2023/08/21 11:43:08;;;;;;;5.80;5.10;;;;;;;29.89;100.00;99629.22;104570;1254;69189;-63
2023/08/21 11:45:36;;;;;;;6.40;4.50;;;;;;;29.88;100.00;99625.05;104302;1259;72943;-62
2023/08/21 11:48:24;;;;;;;5.90;4.30;;;;;;;29.82;100.00;99629.86;104379;1254;60793;-68
2023/08/21 11:50:52;;;;;;;;;;;;;;;29.89;100.00;99633.36;104513;1254;60888;-65
2023/08/21 11:53:39;;;;;;;6.90;4.40;;;;;;;30.06;100.00;99629.11;104518;1266;74030;-63
2023/08/21 11:56:11;;;;;;;;;;;;;;;30.27;100.00;99632.08;104361;1254;70543;-64
2023/08/21 11:58:39;;;;;;;5.00;4.30;;;;;;;30.45;100.00;99633.11;104314;1259;72282;-64
2023/08/21 12:01:08;;;;;;;5.70;4.30;;;;;;;30.60;100.00;99627.31;104532;1257;60450;-64
2023/08/21 12:03:39;;;;;;;5.60;4.80;;;;;;;30.79;100.00;99625.98;104373;1259;62486;-63
2023/08/21 12:06:11;;;;;;;8.00;4.80;;;;;;;31.00;100.00;99625.75;104761;1258;73768;-63
2023/08/21 12:08:39;;;;;;;5.40;4.00;;;;;;;31.19;100.00;99629.25;104687;1260;69183;-63
2023/08/21 12:11:07;;;;;;;6.70;4.10;;;;;;;31.35;100.00;99628.58;104235;1267;72482;-64
2023/08/21 12:13:35;;;;;;;4.90;4.40;;;;;;;31.51;100.00;99626.55;104825;1255;60812;-63
2023/08/21 12:16:04;;;;;;;5.40;4.90;;;;;;;31.63;100.00;99627.81;107151;1253;60373;-62
2023/08/21 12:18:31;;;;;;;6.30;4.20;;;;;;;31.82;99.60;99620.23;106986;1254;74074;-64
2023/08/21 12:20:59;;;;;;;7.00;4.50;;;;;;;32.08;98.90;99607.01;108224;1253;69362;-63
2023/08/21 12:23:28;;;;;;;7.30;5.30;;;;;;;32.36;99.63;99606.17;104492;1275;71326;-64
2023/08/21 12:25:55;;;;;;;7.70;5.50;;;;;;;32.62;98.64;99595.67;104389;1255;60657;-65
2023/08/21 12:28:23;;;;;;;7.40;5.70;;;;;;;32.86;96.63;99596.04;104729;1254;60595;-64
2023/08/21 12:30:51;;;;;;;7.40;5.90;;;;;;;33.06;93.24;99595.65;104434;1257;73684;-68
2023/08/21 12:33:19;;;;;;;;;;;;;;;33.17;92.53;99592.34;104588;1253;69346;-69
2023/08/21 12:35:51;;;;;;;6.30;5.70;;;;;;;33.24;94.07;99594.79;104589;1254;71654;-69
2023/08/21 12:38:20;;;;;;;6.10;5.60;;;;;;;33.39;94.20;99591.66;104358;1254;60158;-69
2023/08/21 12:40:48;;;;;;;6.20;5.70;;;;;;;33.50;92.31;99589.35;104373;1254;60520;-69
2023/08/21 12:43:15;;;;;;;;;;;;;;;33.60;90.73;99586.70;104564;1258;73734;-63
2023/08/21 12:45:43;;;;;;;6.90;5.10;;;;;;;33.65;86.16;99581.14;104553;1257;69344;-64
2023/08/21 12:48:11;;;;;;;8.20;5.00;;;;;;;33.64;85.14;99576.65;104250;1257;72213;-64
2023/08/21 12:50:39;;;;;;;6.00;4.70;;;;;;;33.69;84.15;99578.40;104454;1253;60561;-64
2023/08/21 12:53:07;;;;;;;6.80;4.90;;;;;;;33.75;81.74;99578.10;104350;1254;59928;-67
2023/08/21 12:55:35;;;;;;;5.50;4.60;;;;;;;33.82;77.22;99575.88;104255;1254;74192;-66
2023/08/21 12:58:03;;;;;;;8.00;4.40;;;;;;;33.86;76.44;99577.61;104546;1258;69099;-68
2023/08/21 13:00:32;;;;;;;5.50;3.50;;;;;;;33.82;71.37;99573.78;104435;1274;72144;-66
2023/08/21 13:03:00;;;;;;;4.60;4.20;;;;;;;33.80;68.91;99572.41;104674;1254;60536;-68
2023/08/21 13:05:28;;;;;;;5.60;3.50;;;;;;;33.71;67.12;99568.61;104836;1257;60476;-65
2023/08/21 13:07:55;;;;;;;6.50;3.80;;;;;;;33.75;67.15;99571.19;104470;1269;73629;-65
2023/08/21 13:10:23;;;;;;;4.60;3.40;;;;;;;33.83;64.71;99574.20;104647;1255;69727;-66
2023/08/21 13:12:51;;;;;;;4.00;3.30;;;;;;;33.90;65.99;99570.84;104288;1276;71479;-64
2023/08/21 13:15:21;;;;;;;4.40;3.80;;;;;;;34.10;64.36;99568.19;104955;1254;60572;-65
2023/08/21 13:17:49;;;;;;;5.70;3.60;;;;;;;34.28;62.46;99570.05;105057;1255;60677;-65
2023/08/21 13:20:17;;;;;;;3.70;3.50;;;;;;;34.44;62.83;99574.35;105406;1254;74579;-66
2023/08/21 13:22:46;;;;;;;6.10;3.90;;;;;;;34.59;63.08;99577.53;107467;1253;69480;-63
2023/08/21 13:25:15;;;;;;;6.80;3.90;;;;;;;34.76;61.74;99572.12;104508;1270;72781;-63
2023/08/21 13:27:43;;;;;;;3.90;3.50;;;;;;;34.84;59.58;99566.02;104875;1255;61004;-64
2023/08/21 13:30:11;;;;;;;5.20;3.80;;;;;;;34.85;59.93;99557.48;104500;1253;60561;-66
2023/08/21 13:32:39;;;;;;;4.50;4.10;;;;;;;34.96;60.21;99556.61;104537;1257;73713;-63
2023/08/21 13:35:08;;;;;;;5.30;4.40;;;;;;;35.03;60.18;99558.84;104256;1255;70080;-65
2023/08/21 13:37:36;;;;;;;4.90;4.40;;;;;;;35.16;59.85;99558.78;104400;1257;72734;-64
2023/08/21 13:40:11;;;;;;;4.90;4.30;;;;;;;35.28;58.92;99558.86;104460;1254;60735;-64
2023/08/21 13:42:41;;;;;;;7.80;4.50;;;;;;;35.32;58.85;99557.13;104557;1266;60588;-64
2023/08/21 13:45:12;;;;;;;5.70;4.50;;;;;;;35.40;58.76;99553.48;104468;1267;73595;-64
2023/08/21 13:47:40;;;;;;;5.20;4.60;;;;;;;35.52;58.23;99549.71;104478;1254;69172;-66